Hauptseite
METAR-TAF:

METAR-TAF

Flughäfen :

Bukarest, Rumänien

Flughafen Bukarest Henri Coandă

Breite: 44-33N, Länge: 026-06E, Höhe: 95 m

Beobachtung

Neuester Wetterbericht von vor 27 Minuten, um 17:30 UTC
Wind 18 kt aus Ost/Nordost
Temperatur 18°C
Luftfeuchtigkeit 37%
Luftdruck 1023 hPa
Sichtweite 10 km oder mehr
keine Wolken unter 1500 m und keine Kumulonimbus oder Gewitterwolken

METAR: LROP 261730Z 06018KT CAVOK 18/03 Q1023 R08R/09//95 R08L/09//95 NOSIG

Zeit: 20:57 (17:57 UTC)

Prognose

Neuester Wetterbericht von vor 57 Minuten, um 17:00 UTC
Gültige Prognose vom 26 um 18 UTC bis 27 um 18 UTC
Wind 16 kt aus Ost/Nordost
Sichtweite 10 km oder mehr
keine Wolken unter 1500 m und keine Kumulonimbus oder Gewitterwolken
Zeitweise
vom 27 um 07 UTC bis 27 um 13 UTC
Wind 18 kt aus Ost/Nordost, Böen bis zu 28 kt

TAF: LROP 261700Z 2618/2718 06016KT CAVOK TEMPO 2707/2713 06018G28KT

Wetterbeobachtungen und Prognosen von mehr als 4000 Flughäfen (METAR und TAF Bericht).

Die verfügbaren Stationen werden durch gelbe und rote Markierungen auf der Karte dargestellt.

Führen Sie die Maus auf sie, um den Namen der Station zu sehen.

Darauf klicken, um die Beobachtung von Wetterbeobachtungen und Prognosen zu sehen.

Um die Karte zu ändern : klicken Sie auf den grünen Tasten mit einem schwarzen Kreuz Zum Vergrößern, auf den grünen Button mit einem Gedankenstrich zu verkleinern, oder auf die grünen Pfeile für benachbarte Karten.


METAR-TAF: